sensor_id;sensor_type;location;lat;lon;timestamp;pressure;altitude;pressure_sealevel;temperature;humidity
23229;BME280;11783;50.350;6.576;2022-11-11T00:00:05;97539.94;;;6.96;100.00
23229;BME280;11783;50.350;6.576;2022-11-11T00:02:31;97537.66;;;6.93;100.00
23229;BME280;11783;50.350;6.576;2022-11-11T00:04:56;97535.28;;;6.98;100.00
23229;BME280;11783;50.350;6.576;2022-11-11T00:07:22;97539.88;;;6.89;100.00
23229;BME280;11783;50.350;6.576;2022-11-11T00:09:47;97538.72;;;6.77;100.00
23229;BME280;11783;50.350;6.576;2022-11-11T00:12:12;97530.78;;;6.77;100.00
23229;BME280;11783;50.350;6.576;2022-11-11T00:14:38;97538.91;;;6.76;100.00
23229;BME280;11783;50.350;6.576;2022-11-11T00:17:03;97550.72;;;6.80;100.00
23229;BME280;11783;50.350;6.576;2022-11-11T00:19:47;97549.91;;;6.79;100.00
23229;BME280;11783;50.350;6.576;2022-11-11T00:22:31;97544.81;;;6.78;100.00
23229;BME280;11783;50.350;6.576;2022-11-11T00:25:16;97552.13;;;6.76;100.00
23229;BME280;11783;50.350;6.576;2022-11-11T00:27:42;97561.03;;;6.75;100.00
23229;BME280;11783;50.350;6.576;2022-11-11T00:30:07;97569.78;;;6.75;100.00
23229;BME280;11783;50.350;6.576;2022-11-11T00:32:33;97570.16;;;6.72;100.00
23229;BME280;11783;50.350;6.576;2022-11-11T00:34:59;97572.69;;;6.80;100.00
23229;BME280;11783;50.350;6.576;2022-11-11T00:37:45;97561.13;;;6.81;100.00
23229;BME280;11783;50.350;6.576;2022-11-11T00:40:12;97564.06;;;6.72;100.00
23229;BME280;11783;50.350;6.576;2022-11-11T00:42:37;97553.94;;;6.75;100.00
23229;BME280;11783;50.350;6.576;2022-11-11T00:45:03;97561.88;;;6.75;100.00
23229;BME280;11783;50.350;6.576;2022-11-11T00:47:29;97550.84;;;6.72;100.00
23229;BME280;11783;50.350;6.576;2022-11-11T00:50:16;97536.22;;;6.54;100.00
23229;BME280;11783;50.350;6.576;2022-11-11T00:53:13;97537.13;;;6.61;100.00
23229;BME280;11783;50.350;6.576;2022-11-11T00:55:39;97534.66;;;6.60;100.00
23229;BME280;11783;50.350;6.576;2022-11-11T00:58:04;97530.84;;;6.48;100.00
23229;BME280;11783;50.350;6.576;2022-11-11T01:00:30;97535.22;;;6.55;100.00
23229;BME280;11783;50.350;6.576;2022-11-11T01:02:56;97532.13;;;6.52;100.00
23229;BME280;11783;50.350;6.576;2022-11-11T01:05:22;97533.16;;;6.51;100.00
23229;BME280;11783;50.350;6.576;2022-11-11T01:07:50;97536.22;;;6.54;100.00
23229;BME280;11783;50.350;6.576;2022-11-11T01:10:17;97531.31;;;6.51;100.00
23229;BME280;11783;50.350;6.576;2022-11-11T01:13:04;97538.97;;;6.46;100.00
23229;BME280;11783;50.350;6.576;2022-11-11T01:15:44;97540.34;;;6.42;100.00
23229;BME280;11783;50.350;6.576;2022-11-11T01:18:12;97549.16;;;6.49;100.00
23229;BME280;11783;50.350;6.576;2022-11-11T01:20:38;97548.69;;;6.46;100.00
23229;BME280;11783;50.350;6.576;2022-11-11T01:23:05;97547.88;;;6.45;100.00
23229;BME280;11783;50.350;6.576;2022-11-11T01:25:36;97557.19;;;6.41;100.00
23229;BME280;11783;50.350;6.576;2022-11-11T01:28:02;97552.28;;;6.38;100.00
23229;BME280;11783;50.350;6.576;2022-11-11T01:30:28;97541.97;;;6.28;100.00
23229;BME280;11783;50.350;6.576;2022-11-11T01:32:54;97547.44;;;6.27;100.00
23229;BME280;11783;50.350;6.576;2022-11-11T01:35:20;97550.47;;;6.24;100.00
23229;BME280;11783;50.350;6.576;2022-11-11T01:37:45;97551.56;;;6.15;100.00
23229;BME280;11783;50.350;6.576;2022-11-11T01:40:11;97558.44;;;5.86;100.00
23229;BME280;11783;50.350;6.576;2022-11-11T01:42:53;97565.72;;;5.84;100.00
23229;BME280;11783;50.350;6.576;2022-11-11T01:48:32;97558.44;;;5.86;100.00
23229;BME280;11783;50.350;6.576;2022-11-11T01:51:37;97552.56;;;5.99;100.00
23229;BME280;11783;50.350;6.576;2022-11-11T01:54:08;97552.84;;;6.04;100.00
23229;BME280;11783;50.350;6.576;2022-11-11T01:56:35;97559.56;;;6.06;100.00
23229;BME280;11783;50.350;6.576;2022-11-11T01:59:02;97551.28;;;6.10;100.00
23229;BME280;11783;50.350;6.576;2022-11-11T02:01:31;97553.84;;;6.18;100.00
23229;BME280;11783;50.350;6.576;2022-11-11T02:03:59;97553.66;;;6.19;100.00
23229;BME280;11783;50.350;6.576;2022-11-11T02:06:44;97552.03;;;6.18;100.00
23229;BME280;11783;50.350;6.576;2022-11-11T02:09:11;97556.47;;;6.18;100.00
23229;BME280;11783;50.350;6.576;2022-11-11T02:11:38;97560.56;;;6.20;100.00
23229;BME280;11783;50.350;6.576;2022-11-11T02:14:23;97565.28;;;6.25;100.00
23229;BME280;11783;50.350;6.576;2022-11-11T02:17:07;97569.13;;;6.22;100.00
23229;BME280;11783;50.350;6.576;2022-11-11T02:19:49;97566.66;;;6.21;100.00
23229;BME280;11783;50.350;6.576;2022-11-11T02:24:50;97558.56;;;6.22;100.00
23229;BME280;11783;50.350;6.576;2022-11-11T02:27:17;97549.63;;;6.23;100.00
23229;BME280;11783;50.350;6.576;2022-11-11T02:29:46;97556.38;;;6.26;100.00
23229;BME280;11783;50.350;6.576;2022-11-11T02:32:13;97547.63;;;6.25;100.00
23229;BME280;11783;50.350;6.576;2022-11-11T02:34:38;97554.00;;;6.31;100.00
23229;BME280;11783;50.350;6.576;2022-11-11T02:37:05;97556.47;;;6.32;100.00
23229;BME280;11783;50.350;6.576;2022-11-11T02:39:34;97555.09;;;6.36;100.00
23229;BME280;11783;50.350;6.576;2022-11-11T02:42:01;97549.00;;;6.36;100.00
23229;BME280;11783;50.350;6.576;2022-11-11T02:44:34;97561.19;;;6.37;100.00
23229;BME280;11783;50.350;6.576;2022-11-11T02:47:00;97562.84;;;6.38;100.00
23229;BME280;11783;50.350;6.576;2022-11-11T02:49:25;97558.28;;;6.32;100.00
23229;BME280;11783;50.350;6.576;2022-11-11T02:51:50;97556.56;;;6.24;100.00
23229;BME280;11783;50.350;6.576;2022-11-11T02:54:15;97564.66;;;6.23;100.00
23229;BME280;11783;50.350;6.576;2022-11-11T02:56:41;97568.94;;;6.09;100.00
23229;BME280;11783;50.350;6.576;2022-11-11T02:59:25;97567.75;;;6.12;100.00
23229;BME280;11783;50.350;6.576;2022-11-11T03:01:50;97568.66;;;6.04;100.00
23229;BME280;11783;50.350;6.576;2022-11-11T03:04:15;97568.84;;;6.02;100.00
23229;BME280;11783;50.350;6.576;2022-11-11T03:06:41;97567.22;;;6.01;100.00
23229;BME280;11783;50.350;6.576;2022-11-11T03:09:06;97567.97;;;5.87;100.00
23229;BME280;11783;50.350;6.576;2022-11-11T03:11:31;97565.97;;;5.89;100.00
23229;BME280;11783;50.350;6.576;2022-11-11T03:13:58;97568.53;;;5.83;100.00
23229;BME280;11783;50.350;6.576;2022-11-11T03:16:25;97563.81;;;5.78;100.00
23229;BME280;11783;50.350;6.576;2022-11-11T03:19:09;97565.25;;;5.81;100.00
23229;BME280;11783;50.350;6.576;2022-11-11T03:21:34;97574.44;;;5.85;100.00
23229;BME280;11783;50.350;6.576;2022-11-11T03:23:59;97574.41;;;5.70;100.00
23229;BME280;11783;50.350;6.576;2022-11-11T03:26:25;97578.69;;;5.71;100.00
23229;BME280;11783;50.350;6.576;2022-11-11T03:28:50;97581.97;;;5.58;100.00
23229;BME280;11783;50.350;6.576;2022-11-11T03:31:16;97578.72;;;5.48;100.00
23229;BME280;11783;50.350;6.576;2022-11-11T03:33:41;97577.28;;;5.45;100.00
23229;BME280;11783;50.350;6.576;2022-11-11T03:36:07;97575.50;;;5.38;100.00
23229;BME280;11783;50.350;6.576;2022-11-11T03:38:32;97569.53;;;5.44;100.00
23229;BME280;11783;50.350;6.576;2022-11-11T03:40:58;97571.72;;;5.40;100.00
23229;BME280;11783;50.350;6.576;2022-11-11T03:43:26;97572.53;;;5.41;100.00
23229;BME280;11783;50.350;6.576;2022-11-11T03:45:53;97576.69;;;5.35;100.00
23229;BME280;11783;50.350;6.576;2022-11-11T03:48:19;97581.03;;;5.28;100.00
23229;BME280;11783;50.350;6.576;2022-11-11T03:50:45;97569.06;;;5.17;100.00
23229;BME280;11783;50.350;6.576;2022-11-11T03:53:12;97574.34;;;5.17;100.00
23229;BME280;11783;50.350;6.576;2022-11-11T03:55:39;97574.41;;;5.09;100.00
23229;BME280;11783;50.350;6.576;2022-11-11T03:58:04;97576.34;;;4.93;100.00
23229;BME280;11783;50.350;6.576;2022-11-11T04:00:29;97579.78;;;4.93;100.00
23229;BME280;11783;50.350;6.576;2022-11-11T04:05:52;97581.31;;;4.88;100.00
23229;BME280;11783;50.350;6.576;2022-11-11T04:08:36;97573.78;;;4.76;100.00
23229;BME280;11783;50.350;6.576;2022-11-11T04:13:50;97579.28;;;4.67;100.00
23229;BME280;11783;50.350;6.576;2022-11-11T04:16:36;97582.56;;;4.69;100.00
23229;BME280;11783;50.350;6.576;2022-11-11T04:19:01;97583.56;;;4.68;100.00
23229;BME280;11783;50.350;6.576;2022-11-11T04:21:45;97583.22;;;4.71;100.00
23229;BME280;11783;50.350;6.576;2022-11-11T04:24:13;97590.66;;;4.67;100.00
23229;BME280;11783;50.350;6.576;2022-11-11T04:26:59;97579.97;;;4.61;100.00
23229;BME280;11783;50.350;6.576;2022-11-11T04:29:25;97580.94;;;4.60;100.00
23229;BME280;11783;50.350;6.576;2022-11-11T04:34:51;97587.50;;;4.64;100.00
23229;BME280;11783;50.350;6.576;2022-11-11T04:37:17;97588.81;;;4.68;100.00
23229;BME280;11783;50.350;6.576;2022-11-11T04:39:43;97585.03;;;4.70;100.00
23229;BME280;11783;50.350;6.576;2022-11-11T04:42:27;97586.50;;;4.65;100.00
23229;BME280;11783;50.350;6.576;2022-11-11T04:44:53;97585.22;;;4.61;100.00
23229;BME280;11783;50.350;6.576;2022-11-11T04:47:37;97590.38;;;4.46;100.00
23229;BME280;11783;50.350;6.576;2022-11-11T04:50:03;97585.34;;;4.36;100.00
23229;BME280;11783;50.350;6.576;2022-11-11T04:52:29;97583.34;;;4.38;100.00
23229;BME280;11783;50.350;6.576;2022-11-11T04:54:56;97586.78;;;4.47;100.00
23229;BME280;11783;50.350;6.576;2022-11-11T04:57:45;97581.31;;;4.56;100.00
23229;BME280;11783;50.350;6.576;2022-11-11T05:00:13;97582.91;;;4.66;100.00
23229;BME280;11783;50.350;6.576;2022-11-11T05:02:39;97581.41;;;4.71;100.00
23229;BME280;11783;50.350;6.576;2022-11-11T05:05:24;97574.97;;;4.74;100.00
23229;BME280;11783;50.350;6.576;2022-11-11T05:07:50;97580.34;;;4.80;100.00
23229;BME280;11783;50.350;6.576;2022-11-11T05:10:34;97582.31;;;4.86;100.00
23229;BME280;11783;50.350;6.576;2022-11-11T05:12:59;97580.84;;;4.84;100.00
23229;BME280;11783;50.350;6.576;2022-11-11T05:15:43;97578.34;;;4.82;100.00
23229;BME280;11783;50.350;6.576;2022-11-11T05:18:28;97587.56;;;4.86;100.00
23229;BME280;11783;50.350;6.576;2022-11-11T05:21:15;97589.03;;;4.89;100.00
23229;BME280;11783;50.350;6.576;2022-11-11T05:23:44;97587.69;;;4.93;100.00
23229;BME280;11783;50.350;6.576;2022-11-11T05:26:28;97598.88;;;4.95;100.00
23229;BME280;11783;50.350;6.576;2022-11-11T05:28:53;97595.13;;;4.90;100.00
23229;BME280;11783;50.350;6.576;2022-11-11T05:31:19;97599.22;;;4.92;100.00
23229;BME280;11783;50.350;6.576;2022-11-11T05:33:44;97597.13;;;4.88;100.00
23229;BME280;11783;50.350;6.576;2022-11-11T05:36:09;97605.59;;;4.98;100.00
23229;BME280;11783;50.350;6.576;2022-11-11T05:38:34;97604.78;;;4.97;100.00
23229;BME280;11783;50.350;6.576;2022-11-11T05:41:00;97608.06;;;4.99;100.00
23229;BME280;11783;50.350;6.576;2022-11-11T05:43:25;97605.59;;;4.98;100.00
23229;BME280;11783;50.350;6.576;2022-11-11T05:45:50;97612.84;;;5.04;100.00
23229;BME280;11783;50.350;6.576;2022-11-11T05:48:15;97622.03;;;5.08;100.00
23229;BME280;11783;50.350;6.576;2022-11-11T05:50:41;97626.59;;;5.14;100.00
23229;BME280;11783;50.350;6.576;2022-11-11T05:53:07;97627.59;;;5.13;100.00
23229;BME280;11783;50.350;6.576;2022-11-11T05:55:32;97628.59;;;5.12;100.00
23229;BME280;11783;50.350;6.576;2022-11-11T05:57:58;97625.41;;;5.16;100.00
23229;BME280;11783;50.350;6.576;2022-11-11T06:00:23;97638.41;;;5.18;100.00
23229;BME280;11783;50.350;6.576;2022-11-11T06:02:48;97630.69;;;5.16;100.00
23229;BME280;11783;50.350;6.576;2022-11-11T06:05:14;97634.13;;;5.17;100.00
23229;BME280;11783;50.350;6.576;2022-11-11T06:07:39;97632.50;;;5.16;100.00
23229;BME280;11783;50.350;6.576;2022-11-11T06:10:05;97634.97;;;5.17;100.00
23229;BME280;11783;50.350;6.576;2022-11-11T06:12:49;97628.50;;;5.20;100.00
23229;BME280;11783;50.350;6.576;2022-11-11T06:15:32;97624.59;;;5.16;100.00
23229;BME280;11783;50.350;6.576;2022-11-11T06:17:58;97624.47;;;5.09;100.00
23229;BME280;11783;50.350;6.576;2022-11-11T06:20:23;97628.22;;;5.15;100.00
23229;BME280;11783;50.350;6.576;2022-11-11T06:22:49;97635.75;;;5.26;100.00
23229;BME280;11783;50.350;6.576;2022-11-11T06:25:20;97631.88;;;5.37;100.00
23229;BME280;11783;50.350;6.576;2022-11-11T06:28:04;97634.94;;;5.26;100.00
23229;BME280;11783;50.350;6.576;2022-11-11T06:30:29;97638.03;;;5.29;100.00
23229;BME280;11783;50.350;6.576;2022-11-11T06:32:54;97646.88;;;5.36;100.00
23229;BME280;11783;50.350;6.576;2022-11-11T06:35:19;97647.03;;;5.35;100.00
23229;BME280;11783;50.350;6.576;2022-11-11T06:37:45;97643.59;;;5.34;100.00
23229;BME280;11783;50.350;6.576;2022-11-11T06:40:10;97653.13;;;5.35;100.00
23229;BME280;11783;50.350;6.576;2022-11-11T06:42:36;97652.78;;;5.38;100.00
23229;BME280;11783;50.350;6.576;2022-11-11T06:45:02;97656.00;;;5.48;100.00
23229;BME280;11783;50.350;6.576;2022-11-11T06:47:27;97651.84;;;5.54;100.00
23229;BME280;11783;50.350;6.576;2022-11-11T06:49:52;97663.47;;;5.45;100.00
23229;BME280;11783;50.350;6.576;2022-11-11T06:52:18;97661.28;;;5.48;100.00
23229;BME280;11783;50.350;6.576;2022-11-11T06:54:43;97656.13;;;5.55;100.00
23229;BME280;11783;50.350;6.576;2022-11-11T06:57:08;97660.22;;;5.58;100.00
23229;BME280;11783;50.350;6.576;2022-11-11T06:59:34;97666.03;;;5.53;100.00
23229;BME280;11783;50.350;6.576;2022-11-11T07:01:59;97662.41;;;5.54;100.00
23229;BME280;11783;50.350;6.576;2022-11-11T07:04:24;97675.06;;;5.59;100.00
23229;BME280;11783;50.350;6.576;2022-11-11T07:06:49;97677.56;;;5.52;100.00
23229;BME280;11783;50.350;6.576;2022-11-11T07:09:15;97669.84;;;5.51;100.00
23229;BME280;11783;50.350;6.576;2022-11-11T07:11:40;97673.13;;;5.53;100.00
23229;BME280;11783;50.350;6.576;2022-11-11T07:14:05;97673.94;;;5.53;100.00
23229;BME280;11783;50.350;6.576;2022-11-11T07:16:30;97665.84;;;5.55;100.00
23229;BME280;11783;50.350;6.576;2022-11-11T07:18:56;97674.59;;;5.55;100.00
23229;BME280;11783;50.350;6.576;2022-11-11T07:21:21;97674.88;;;5.37;100.00
23229;BME280;11783;50.350;6.576;2022-11-11T07:23:46;97680.84;;;5.31;100.00
23229;BME280;11783;50.350;6.576;2022-11-11T07:26:11;97675.69;;;5.38;100.00
23229;BME280;11783;50.350;6.576;2022-11-11T07:28:37;97682.66;;;5.31;100.00
23229;BME280;11783;50.350;6.576;2022-11-11T07:31:02;97681.59;;;5.17;100.00
23229;BME280;11783;50.350;6.576;2022-11-11T07:33:27;97695.66;;;5.01;100.00
23229;BME280;11783;50.350;6.576;2022-11-11T07:35:52;97688.28;;;4.97;100.00
23229;BME280;11783;50.350;6.576;2022-11-11T07:38:18;97692.53;;;4.98;100.00
23229;BME280;11783;50.350;6.576;2022-11-11T07:40:43;97695.66;;;5.01;100.00
23229;BME280;11783;50.350;6.576;2022-11-11T07:43:08;97701.63;;;4.95;100.00
23229;BME280;11783;50.350;6.576;2022-11-11T07:45:34;97697.47;;;5.01;100.00
23229;BME280;11783;50.350;6.576;2022-11-11T07:47:59;97697.16;;;5.04;100.00
23229;BME280;11783;50.350;6.576;2022-11-11T07:50:24;97694.50;;;5.04;100.00
23229;BME280;11783;50.350;6.576;2022-11-11T07:52:49;97704.19;;;5.11;100.00
23229;BME280;11783;50.350;6.576;2022-11-11T07:55:15;97696.06;;;5.21;100.00
23229;BME280;11783;50.350;6.576;2022-11-11T07:57:40;97694.09;;;5.23;100.00
23229;BME280;11783;50.350;6.576;2022-11-11T08:00:06;97699.34;;;5.23;100.00
23229;BME280;11783;50.350;6.576;2022-11-11T08:02:32;97702.47;;;5.27;100.00
23229;BME280;11783;50.350;6.576;2022-11-11T08:07:35;97700.28;;;5.30;100.00
23229;BME280;11783;50.350;6.576;2022-11-11T08:10:02;97711.66;;;5.31;100.00
23229;BME280;11783;50.350;6.576;2022-11-11T08:12:43;97713.72;;;5.21;100.00
23229;BME280;11783;50.350;6.576;2022-11-11T08:15:27;97708.59;;;5.19;100.00
23229;BME280;11783;50.350;6.576;2022-11-11T08:17:53;97710.91;;;5.14;100.00
23229;BME280;11783;50.350;6.576;2022-11-11T08:20:18;97712.84;;;5.20;100.00
23229;BME280;11783;50.350;6.576;2022-11-11T08:22:43;97704.09;;;5.28;100.00
23229;BME280;11783;50.350;6.576;2022-11-11T08:25:10;97699.28;;;5.39;100.00
23229;BME280;11783;50.350;6.576;2022-11-11T08:27:38;97702.13;;;5.53;100.00
23229;BME280;11783;50.350;6.576;2022-11-11T08:30:05;97699.97;;;5.56;100.00
23229;BME280;11783;50.350;6.576;2022-11-11T08:32:30;97709.81;;;5.62;100.00
23229;BME280;11783;50.350;6.576;2022-11-11T08:34:56;97710.94;;;5.68;100.00
23229;BME280;11783;50.350;6.576;2022-11-11T08:37:21;97705.59;;;5.76;100.00
23229;BME280;11783;50.350;6.576;2022-11-11T08:39:46;97708.06;;;5.77;100.00
23229;BME280;11783;50.350;6.576;2022-11-11T08:42:12;97695.56;;;5.94;100.00
23229;BME280;11783;50.350;6.576;2022-11-11T08:44:37;97699.09;;;5.87;100.00
23229;BME280;11783;50.350;6.576;2022-11-11T08:47:03;97698.22;;;5.94;100.00
23229;BME280;11783;50.350;6.576;2022-11-11T08:49:28;97699.81;;;6.03;100.00
23229;BME280;11783;50.350;6.576;2022-11-11T08:51:53;97698.03;;;6.19;100.00
23229;BME280;11783;50.350;6.576;2022-11-11T08:54:19;97694.13;;;6.29;100.00
23229;BME280;11783;50.350;6.576;2022-11-11T08:56:44;97709.06;;;6.37;100.00
23229;BME280;11783;50.350;6.576;2022-11-11T08:59:09;97705.53;;;6.45;100.00
23229;BME280;11783;50.350;6.576;2022-11-11T09:01:35;97702.00;;;6.52;100.00
23229;BME280;11783;50.350;6.576;2022-11-11T09:04:01;97703.72;;;6.60;100.00
23229;BME280;11783;50.350;6.576;2022-11-11T09:06:27;97700.53;;;6.64;100.00
23229;BME280;11783;50.350;6.576;2022-11-11T09:08:53;97697.69;;;6.81;100.00
23229;BME280;11783;50.350;6.576;2022-11-11T09:11:18;97694.50;;;6.85;100.00
23229;BME280;11783;50.350;6.576;2022-11-11T09:13:46;97704.44;;;6.98;100.00
23229;BME280;11783;50.350;6.576;2022-11-11T09:16:11;97703.69;;;7.04;100.00
23229;BME280;11783;50.350;6.576;2022-11-11T09:18:37;97703.84;;;7.17;100.00
23229;BME280;11783;50.350;6.576;2022-11-11T09:21:03;97707.31;;;7.33;100.00
23229;BME280;11783;50.350;6.576;2022-11-11T09:23:29;97706.97;;;7.42;100.00
23229;BME280;11783;50.350;6.576;2022-11-11T09:25:54;97707.50;;;7.52;100.00
23229;BME280;11783;50.350;6.576;2022-11-11T09:28:19;97717.53;;;7.57;100.00
23229;BME280;11783;50.350;6.576;2022-11-11T09:30:45;97716.03;;;7.69;100.00
23229;BME280;11783;50.350;6.576;2022-11-11T09:33:10;97718.81;;;7.82;100.00
23229;BME280;11783;50.350;6.576;2022-11-11T09:35:37;97719.50;;;7.91;100.00
23229;BME280;11783;50.350;6.576;2022-11-11T09:38:02;97720.22;;;8.00;100.00
23229;BME280;11783;50.350;6.576;2022-11-11T09:43:33;97725.84;;;8.18;100.00
23229;BME280;11783;50.350;6.576;2022-11-11T09:46:10;97734.28;;;8.28;100.00
23229;BME280;11783;50.350;6.576;2022-11-11T09:51:39;97730.69;;;8.36;100.00
23229;BME280;11783;50.350;6.576;2022-11-11T09:54:13;97721.38;;;8.40;100.00
23229;BME280;11783;50.350;6.576;2022-11-11T09:56:40;97734.09;;;8.51;100.00
23229;BME280;11783;50.350;6.576;2022-11-11T09:59:13;97733.97;;;8.59;100.00
23229;BME280;11783;50.350;6.576;2022-11-11T10:01:53;97735.09;;;8.50;100.00
23229;BME280;11783;50.350;6.576;2022-11-11T10:04:48;97736.25;;;8.69;100.00
23229;BME280;11783;50.350;6.576;2022-11-11T10:07:26;97730.81;;;8.77;100.00
23229;BME280;11783;50.350;6.576;2022-11-11T10:10:21;97734.28;;;8.77;100.00
23229;BME280;11783;50.350;6.576;2022-11-11T10:12:55;97732.50;;;8.91;100.00
23229;BME280;11783;50.350;6.576;2022-11-11T10:15:23;97726.63;;;8.96;100.00
23229;BME280;11783;50.350;6.576;2022-11-11T10:20:50;97726.31;;;9.12;100.00
23229;BME280;11783;50.350;6.576;2022-11-11T10:23:23;97724.69;;;9.11;100.00
23229;BME280;11783;50.350;6.576;2022-11-11T10:25:54;97727.97;;;9.20;100.00
23229;BME280;11783;50.350;6.576;2022-11-11T10:28:25;97729.63;;;9.27;99.65
23229;BME280;11783;50.350;6.576;2022-11-11T10:30:52;97729.06;;;9.38;100.00
23229;BME280;11783;50.350;6.576;2022-11-11T10:33:29;97727.91;;;9.54;100.00
23229;BME280;11783;50.350;6.576;2022-11-11T10:35:59;97723.22;;;9.56;98.58
23229;BME280;11783;50.350;6.576;2022-11-11T10:39:01;97731.22;;;9.69;99.62
23229;BME280;11783;50.350;6.576;2022-11-11T10:41:48;97723.06;;;9.84;99.30
23229;BME280;11783;50.350;6.576;2022-11-11T10:44:25;97725.53;;;9.99;97.53
23229;BME280;11783;50.350;6.576;2022-11-11T10:47:03;97713.91;;;10.13;94.74
23229;BME280;11783;50.350;6.576;2022-11-11T10:49:34;97717.41;;;10.34;92.77
23229;BME280;11783;50.350;6.576;2022-11-11T10:54:46;97715.78;;;10.66;90.07
23229;BME280;11783;50.350;6.576;2022-11-11T10:57:38;97713.91;;;10.79;88.28
23229;BME280;11783;50.350;6.576;2022-11-11T11:00:07;97707.13;;;10.77;86.45
23229;BME280;11783;50.350;6.576;2022-11-11T11:05:30;97715.69;;;10.99;85.75
23229;BME280;11783;50.350;6.576;2022-11-11T11:08:00;97716.88;;;11.09;86.30
23229;BME280;11783;50.350;6.576;2022-11-11T11:10:38;97704.19;;;11.11;87.30
23229;BME280;11783;50.350;6.576;2022-11-11T11:13:15;97711.50;;;11.29;85.82
23229;BME280;11783;50.350;6.576;2022-11-11T11:15:43;97712.09;;;11.31;82.21
23229;BME280;11783;50.350;6.576;2022-11-11T11:18:15;97705.31;;;11.42;83.95
23229;BME280;11783;50.350;6.576;2022-11-11T11:21:02;97705.63;;;11.52;81.12
23229;BME280;11783;50.350;6.576;2022-11-11T11:25:59;97695.09;;;11.70;83.62
23229;BME280;11783;50.350;6.576;2022-11-11T11:28:26;97685.66;;;11.74;83.42
23229;BME280;11783;50.350;6.576;2022-11-11T11:31:06;97698.91;;;11.88;84.65
23229;BME280;11783;50.350;6.576;2022-11-11T11:33:54;97701.88;;;12.04;82.16
23229;BME280;11783;50.350;6.576;2022-11-11T11:36:20;97696.09;;;12.07;82.30
23229;BME280;11783;50.350;6.576;2022-11-11T11:38:47;97703.78;;;12.22;80.48
23229;BME280;11783;50.350;6.576;2022-11-11T11:41:16;97705.19;;;12.31;81.52
23229;BME280;11783;50.350;6.576;2022-11-11T11:43:42;97701.56;;;12.44;80.29
23229;BME280;11783;50.350;6.576;2022-11-11T11:46:28;97702.13;;;12.53;78.83
23229;BME280;11783;50.350;6.576;2022-11-11T11:51:51;97695.44;;;12.62;75.65
23229;BME280;11783;50.350;6.576;2022-11-11T11:54:35;97689.41;;;12.73;77.15
23229;BME280;11783;50.350;6.576;2022-11-11T11:57:18;97690.88;;;12.69;75.55
23229;BME280;11783;50.350;6.576;2022-11-11T11:59:54;97694.66;;;12.80;76.10
23229;BME280;11783;50.350;6.576;2022-11-11T12:05:01;97697.34;;;12.98;76.92
23229;BME280;11783;50.350;6.576;2022-11-11T12:10:22;97696.72;;;13.21;74.60
23229;BME280;11783;50.350;6.576;2022-11-11T12:15:51;97690.53;;;13.02;75.65
23229;BME280;11783;50.350;6.576;2022-11-11T12:24:34;97692.91;;;13.10;73.85
23229;BME280;11783;50.350;6.576;2022-11-11T12:32:55;97680.69;;;13.21;70.74
23229;BME280;11783;50.350;6.576;2022-11-11T12:49:12;97678.63;;;13.53;71.20
23229;BME280;11783;50.350;6.576;2022-11-11T12:57:13;97673.44;;;13.58;71.43
23229;BME280;11783;50.350;6.576;2022-11-11T13:05:44;97662.63;;;13.34;73.11
23229;BME280;11783;50.350;6.576;2022-11-11T13:08:52;97663.06;;;13.50;72.92
23229;BME280;11783;50.350;6.576;2022-11-11T13:14:34;97671.81;;;13.39;72.26
23229;BME280;11783;50.350;6.576;2022-11-11T13:17:05;97667.34;;;13.51;67.84
23229;BME280;11783;50.350;6.576;2022-11-11T13:19:54;97664.63;;;13.57;70.00
23229;BME280;11783;50.350;6.576;2022-11-11T13:22:30;97662.94;;;13.86;70.70
23229;BME280;11783;50.350;6.576;2022-11-11T13:24:57;97659.34;;;13.92;70.77
23229;BME280;11783;50.350;6.576;2022-11-11T13:32:46;97653.63;;;13.77;66.75
23229;BME280;11783;50.350;6.576;2022-11-11T13:37:50;97647.72;;;13.87;70.06
23229;BME280;11783;50.350;6.576;2022-11-11T13:40:34;97643.34;;;14.04;69.92
23229;BME280;11783;50.350;6.576;2022-11-11T13:43:02;97652.44;;;14.15;69.56
23229;BME280;11783;50.350;6.576;2022-11-11T13:45:32;97649.53;;;14.16;70.93
23229;BME280;11783;50.350;6.576;2022-11-11T13:47:59;97642.69;;;14.32;69.96
23229;BME280;11783;50.350;6.576;2022-11-11T13:50:28;97648.06;;;14.44;67.71
23229;BME280;11783;50.350;6.576;2022-11-11T13:53:11;97642.91;;;14.42;68.88
23229;BME280;11783;50.350;6.576;2022-11-11T13:55:41;97643.63;;;14.38;68.03
23229;BME280;11783;50.350;6.576;2022-11-11T13:58:20;97646.19;;;14.33;70.17
23229;BME280;11783;50.350;6.576;2022-11-11T14:00:59;97650.00;;;14.13;68.56
23229;BME280;11783;50.350;6.576;2022-11-11T14:11:29;97655.84;;;13.80;69.74
23229;BME280;11783;50.350;6.576;2022-11-11T14:17:03;97651.56;;;13.79;75.75
23229;BME280;11783;50.350;6.576;2022-11-11T14:19:30;97649.34;;;13.76;76.27
23229;BME280;11783;50.350;6.576;2022-11-11T14:21:59;97647.25;;;13.48;77.60
23229;BME280;11783;50.350;6.576;2022-11-11T14:24:36;97657.22;;;13.41;78.33
23229;BME280;11783;50.350;6.576;2022-11-11T14:27:04;97649.75;;;13.31;76.26
23229;BME280;11783;50.350;6.576;2022-11-11T14:29:51;97652.19;;;13.33;78.48
23229;BME280;11783;50.350;6.576;2022-11-11T14:32:50;97660.66;;;13.30;78.44
23229;BME280;11783;50.350;6.576;2022-11-11T14:35:34;97659.53;;;13.19;77.86
23229;BME280;11783;50.350;6.576;2022-11-11T14:38:17;97664.13;;;13.12;75.35
23229;BME280;11783;50.350;6.576;2022-11-11T14:40:45;97658.88;;;13.06;76.84
23229;BME280;11783;50.350;6.576;2022-11-11T14:46:11;97652.88;;;12.92;77.49
23229;BME280;11783;50.350;6.576;2022-11-11T14:49:06;97654.28;;;12.76;79.38
23229;BME280;11783;50.350;6.576;2022-11-11T14:51:45;97645.31;;;12.70;80.45
23229;BME280;11783;50.350;6.576;2022-11-11T14:54:22;97652.78;;;12.62;80.50
23229;BME280;11783;50.350;6.576;2022-11-11T14:57:00;97653.06;;;12.54;80.90
23229;BME280;11783;50.350;6.576;2022-11-11T14:59:28;97650.75;;;12.39;82.79
23229;BME280;11783;50.350;6.576;2022-11-11T15:01:54;97648.16;;;12.32;83.94
23229;BME280;11783;50.350;6.576;2022-11-11T15:04:22;97651.53;;;12.21;84.80